• Join FlightAware (Why Join?)
  • Login
  • US Flag GB Flag 
01:11 EDT


 

Airport Tracker/Info


-or-


 

Live Flight TrackerFlight Track Log ✈ N888FM ✈ 31-Jan-2014 ✈ KAVP - KBGM

Flight Track Log - Related Links

Times and Time Zones

All times are in EST time to prevent confusion due to time zone crossing. See the N888FM flight status page for this flight to view local times or setup timezone preferences in your user account.

Time Position Orientation Groundspeed Altitude Reporting Facility
EST Latitude Longitude Course Direction KTS MPH feet Rate Location/Type
16:11 41.5800 -75.8400 340° North  Level FlightAware Approximate
16:12 41.6438 -75.8719 340° North  Level FlightAware Approximate
16:13 41.7072 -75.9048 334° Northwest  Level FlightAware Approximate
16:14 41.7691 -75.9423 341° North  Level FlightAware Approximate
16:15 41.8333 -75.9724 341° North  Level FlightAware Approximate
16:16 41.8975 -76.0026 341° North  Level FlightAware Approximate
16:17 41.9617 -76.0328 341° North  Level FlightAware Approximate
16:18 42.0259 -76.0631 341° North  Level FlightAware Approximate
16:19 42.0897 -76.0949 340° North  Level FlightAware Approximate
16:20 42.1500 -76.1323 90° East  Level FlightAware Approximate
16:21 42.1776 -76.0506 66° East  Level FlightAware Approximate
16:22 42.2000 -75.9667 90° East  Level FlightAware Approximate
16:23 42.2084 -75.9796 90° East  Level Estimated
16:24 42.2084 -75.9796 90° East  Level Estimated
16:25 42.2084 -75.9796 90° East  Level Estimated
16:26 42.2084 -75.9796 90° East  Level Estimated
16:27 42.2084 -75.9796 90° East  Level Estimated
16:28 42.2084 -75.9796 90° East  Level Estimated
16:29 42.2084 -75.9796 90° East  Level Estimated
16:30 42.2084 -75.9796 90° East  Level Estimated